Time;durP1;ratioP1;P1;durP2;ratioP2;P2;SDS_P1;SDS_P2;PMS_P1;PMS_P2;Temp;Humidity;BMP_temperature;BMP_pressure;BME280_temperature;BME280_humidity;BME280_pressure;Samples;Min_cycle;Max_cycle;Signal;HPM_P1;HPM_P2
2022/05/16 00:00:10;;;;;;;7.00;3.40;;;;;;;;;;5006998;28;20034;-74
2022/05/16 00:02:36;;;;;;;7.05;3.20;;;;;;;;;;5008049;28;20472;-74
2022/05/16 00:05:03;;;;;;;9.48;3.42;;;;;;;;;;5008642;28;20121;-75
2022/05/16 00:07:29;;;;;;;7.25;3.20;;;;;;;;;;5013205;28;20378;-74
2022/05/16 00:09:55;;;;;;;6.93;3.22;;;;;;;;;;5013635;28;20037;-75
2022/05/16 00:12:21;;;;;;;7.35;3.22;;;;;;;;;;5013907;28;20053;-74
2022/05/16 00:14:47;;;;;;;5.60;3.60;;;;;;;;;;5008076;28;20041;-75
2022/05/16 00:17:13;;;;;;;9.38;3.75;;;;;;;;;;5010046;28;20069;-75
2022/05/16 00:19:40;;;;;;;8.45;3.72;;;;;;;;;;5006203;28;20088;-74
2022/05/16 00:22:07;;;;;;;6.63;3.70;;;;;;;;;;5004881;28;20053;-74
2022/05/16 00:24:33;;;;;;;6.22;3.22;;;;;;;;;;5006127;28;20057;-74
2022/05/16 00:26:59;;;;;;;7.43;3.88;;;;;;;;;;5009230;28;20085;-75
2022/05/16 00:29:25;;;;;;;10.57;3.85;;;;;;;;;;5012209;28;20041;-75
2022/05/16 00:31:54;;;;;;;9.88;4.05;;;;;;;;;;5006819;28;20030;-74
2022/05/16 00:34:20;;;;;;;7.38;3.85;;;;;;;;;;5010164;28;20038;-75
2022/05/16 00:36:47;;;;;;;6.15;3.50;;;;;;;;;;5010973;28;20113;-75
2022/05/16 00:39:14;;;;;;;10.27;3.63;;;;;;;;;;5011997;28;20044;-75
2022/05/16 00:41:40;;;;;;;6.78;4.55;;;;;;;;;;5007513;28;20049;-75
2022/05/16 00:44:07;;;;;;;9.73;4.70;;;;;;;;;;5001964;28;20837;-75
2022/05/16 00:46:33;;;;;;;12.30;4.75;;;;;;;;;;5007849;28;20080;-75
2022/05/16 00:49:00;;;;;;;5.95;3.00;;;;;;;;;;5007714;28;20042;-75
2022/05/16 00:51:28;;;;;;;6.72;2.42;;;;;;;;;;5009812;28;20029;-74
2022/05/16 00:53:56;;;;;;;7.88;3.00;;;;;;;;;;5011722;28;20060;-75
2022/05/16 00:56:23;;;;;;;7.97;3.90;;;;;;;;;;5005670;28;20087;-75
2022/05/16 00:58:49;;;;;;;8.73;3.72;;;;;;;;;;5006432;28;20419;-75
2022/05/16 01:06:47;;;;;;;10.25;4.70;;;;;;;;;;5006624;28;20132;-74
2022/05/16 01:09:13;;;;;;;5.65;3.75;;;;;;;;;;5005325;28;20163;-75
2022/05/16 01:11:39;;;;;;;6.43;3.97;;;;;;;;;;5011787;28;20065;-74
2022/05/16 01:14:05;;;;;;;10.07;3.65;;;;;;;;;;5013227;28;20993;-74
2022/05/16 01:16:32;;;;;;;7.03;4.00;;;;;;;;;;5012289;28;20053;-74
2022/05/16 01:18:58;;;;;;;7.30;3.90;;;;;;;;;;5011790;28;20083;-74
2022/05/16 01:21:30;;;;;;;7.60;3.13;;;;;;;;;;5006344;28;20472;-74
2022/05/16 01:24:02;;;;;;;7.63;4.07;;;;;;;;;;5006887;28;20133;-74
2022/05/16 01:26:29;;;;;;;9.77;3.83;;;;;;;;;;5002390;28;20121;-74
2022/05/16 01:28:55;;;;;;;17.70;3.85;;;;;;;;;;5003200;28;20061;-74
2022/05/16 01:31:22;;;;;;;8.27;3.72;;;;;;;;;;5011466;28;20849;-74
2022/05/16 01:33:48;;;;;;;9.85;4.53;;;;;;;;;;5008850;28;20091;-74
2022/05/16 01:36:14;;;;;;;10.75;6.13;;;;;;;;;;5009302;28;20116;-74
2022/05/16 01:38:40;;;;;;;12.82;5.55;;;;;;;;;;5005690;28;20057;-74
2022/05/16 01:41:08;;;;;;;9.05;3.78;;;;;;;;;;5004282;28;20151;-74
2022/05/16 01:43:39;;;;;;;9.18;4.07;;;;;;;;;;5009467;28;20021;-74
2022/05/16 01:46:05;;;;;;;7.43;2.85;;;;;;;;;;5005699;28;20049;-74
2022/05/16 01:48:31;;;;;;;7.45;3.10;;;;;;;;;;5008577;28;20033;-74
2022/05/16 01:51:10;;;;;;;4.78;2.65;;;;;;;;;;5014641;28;20076;-74
2022/05/16 01:53:36;;;;;;;11.45;3.85;;;;;;;;;;5009916;28;20037;-74
2022/05/16 01:56:02;;;;;;;11.32;3.78;;;;;;;;;;5005458;28;20391;-74
2022/05/16 01:58:28;;;;;;;6.22;3.67;;;;;;;;;;5011433;28;20037;-74
2022/05/16 02:00:54;;;;;;;7.22;3.60;;;;;;;;;;5005602;28;20030;-74
2022/05/16 02:03:21;;;;;;;8.77;3.72;;;;;;;;;;5008003;28;20030;-74
2022/05/16 02:05:47;;;;;;;8.35;3.60;;;;;;;;;;5005732;28;20121;-74
2022/05/16 02:08:13;;;;;;;9.40;3.67;;;;;;;;;;5011795;28;20038;-74
2022/05/16 02:10:40;;;;;;;8.02;3.35;;;;;;;;;;5003249;28;20667;-74
2022/05/16 02:13:06;;;;;;;7.70;3.70;;;;;;;;;;5012345;28;20040;-74
2022/05/16 02:15:34;;;;;;;7.22;3.63;;;;;;;;;;5008642;28;20048;-74
2022/05/16 02:18:00;;;;;;;10.40;3.38;;;;;;;;;;5009273;28;20148;-74
2022/05/16 02:20:27;;;;;;;21.40;6.97;;;;;;;;;;5000953;28;20122;-74
2022/05/16 02:25:39;;;;;;;9.27;3.95;;;;;;;;;;5009960;28;20056;-74
2022/05/16 02:28:07;;;;;;;6.72;3.75;;;;;;;;;;5015271;28;20038;-74
2022/05/16 02:30:34;;;;;;;10.05;4.05;;;;;;;;;;5008396;28;20160;-74
2022/05/16 02:33:00;;;;;;;10.70;4.53;;;;;;;;;;5007535;28;20038;-74
2022/05/16 02:35:26;;;;;;;11.25;3.45;;;;;;;;;;5012548;28;20042;-74
2022/05/16 02:37:52;;;;;;;7.53;4.38;;;;;;;;;;5009111;28;20026;-74
2022/05/16 02:40:18;;;;;;;10.55;4.50;;;;;;;;;;5010553;28;20030;-75
2022/05/16 02:42:44;;;;;;;6.20;3.25;;;;;;;;;;5014014;28;20025;-74
2022/05/16 02:45:10;;;;;;;5.38;4.00;;;;;;;;;;5017425;28;20034;-74
2022/05/16 02:47:36;;;;;;;8.77;3.78;;;;;;;;;;5012799;28;20028;-74
2022/05/16 02:50:03;;;;;;;8.52;4.22;;;;;;;;;;5018388;28;20108;-74
2022/05/16 02:52:29;;;;;;;10.93;3.95;;;;;;;;;;5012357;28;20045;-74
2022/05/16 02:54:55;;;;;;;9.73;3.88;;;;;;;;;;5015044;28;20033;-74
2022/05/16 02:57:21;;;;;;;9.00;4.63;;;;;;;;;;5014387;28;20049;-74
2022/05/16 02:59:47;;;;;;;6.22;3.28;;;;;;;;;;5010984;28;20038;-74
2022/05/16 03:02:14;;;;;;;16.10;3.72;;;;;;;;;;5011061;28;20121;-74
2022/05/16 03:04:40;;;;;;;5.75;3.40;;;;;;;;;;5011608;28;20112;-74
2022/05/16 03:07:06;;;;;;;9.55;3.55;;;;;;;;;;5004494;28;20157;-74
2022/05/16 03:09:33;;;;;;;7.72;3.67;;;;;;;;;;5011755;28;20056;-74
2022/05/16 03:11:59;;;;;;;11.70;4.00;;;;;;;;;;5016343;28;20372;-74
2022/05/16 03:14:26;;;;;;;13.90;7.35;;;;;;;;;;5011483;28;20491;-74
2022/05/16 03:16:52;;;;;;;11.30;6.63;;;;;;;;;;5002976;28;20041;-74
2022/05/16 03:19:18;;;;;;;21.92;7.95;;;;;;;;;;5007384;28;20038;-74
2022/05/16 03:21:44;;;;;;;11.60;5.95;;;;;;;;;;5012250;28;20022;-74
2022/05/16 03:24:10;;;;;;;13.65;5.97;;;;;;;;;;5011532;28;20084;-75
2022/05/16 03:26:37;;;;;;;11.50;6.20;;;;;;;;;;5014083;28;20140;-74
2022/05/16 03:29:05;;;;;;;10.68;6.90;;;;;;;;;;5012916;28;20041;-74
2022/05/16 03:31:31;;;;;;;12.05;7.65;;;;;;;;;;5005284;28;20053;-74
2022/05/16 03:33:57;;;;;;;19.08;12.88;;;;;;;;;;5008591;28;20038;-74
2022/05/16 03:36:23;;;;;;;15.20;11.52;;;;;;;;;;5012488;28;20034;-74
2022/05/16 03:41:33;;;;;;;15.90;9.35;;;;;;;;;;5013424;28;20072;-74
2022/05/16 03:43:59;;;;;;;17.52;10.10;;;;;;;;;;5004490;28;20045;-73
2022/05/16 03:46:26;;;;;;;16.00;7.22;;;;;;;;;;4999550;28;20026;-73
2022/05/16 03:48:52;;;;;;;10.60;7.38;;;;;;;;;;5008816;28;20120;-74
2022/05/16 03:51:19;;;;;;;11.65;6.60;;;;;;;;;;5009309;28;20041;-74
2022/05/16 03:53:48;;;;;;;10.88;6.97;;;;;;;;;;5008318;28;20034;-74
2022/05/16 03:56:15;;;;;;;10.05;5.25;;;;;;;;;;5007056;28;20042;-74
2022/05/16 03:58:41;;;;;;;13.20;4.40;;;;;;;;;;5011003;28;20117;-74
2022/05/16 04:01:08;;;;;;;8.55;3.60;;;;;;;;;;5008274;28;20148;-74
2022/05/16 04:03:34;;;;;;;6.63;3.78;;;;;;;;;;5007003;28;20049;-74
2022/05/16 04:06:00;;;;;;;9.98;4.40;;;;;;;;;;5006796;28;20041;-74
2022/05/16 04:08:28;;;;;;;5.72;3.25;;;;;;;;;;5001221;28;20034;-74
2022/05/16 04:10:54;;;;;;;6.55;3.28;;;;;;;;;;5004193;28;20022;-74
2022/05/16 04:13:20;;;;;;;8.43;3.22;;;;;;;;;;5005982;28;20053;-74
2022/05/16 04:15:46;;;;;;;10.48;3.22;;;;;;;;;;5003983;28;20049;-74
2022/05/16 04:18:12;;;;;;;10.88;3.83;;;;;;;;;;5006404;28;20118;-74
2022/05/16 04:20:39;;;;;;;9.38;3.97;;;;;;;;;;5006111;28;20053;-74
2022/05/16 04:23:07;;;;;;;11.50;3.42;;;;;;;;;;5004207;28;20124;-74
2022/05/16 04:25:33;;;;;;;9.60;3.78;;;;;;;;;;5007755;28;20044;-74
2022/05/16 04:27:59;;;;;;;9.70;3.65;;;;;;;;;;5007267;28;20126;-74
2022/05/16 04:30:25;;;;;;;11.98;4.07;;;;;;;;;;5003867;28;20038;-74
2022/05/16 04:32:52;;;;;;;9.32;4.15;;;;;;;;;;5006145;28;20065;-74
2022/05/16 04:35:18;;;;;;;13.52;4.00;;;;;;;;;;5010115;28;20045;-74
2022/05/16 04:37:44;;;;;;;6.35;3.58;;;;;;;;;;5006266;28;20042;-74
2022/05/16 04:40:11;;;;;;;9.00;4.03;;;;;;;;;;5008437;28;20595;-74
2022/05/16 04:42:40;;;;;;;11.07;4.60;;;;;;;;;;5000432;28;20046;-74
2022/05/16 04:45:08;;;;;;;14.10;4.47;;;;;;;;;;5002523;28;20502;-74
2022/05/16 04:47:34;;;;;;;13.80;4.47;;;;;;;;;;5013597;28;20034;-74
2022/05/16 04:50:00;;;;;;;9.77;4.60;;;;;;;;;;5005550;28;20032;-74
2022/05/16 04:52:26;;;;;;;12.35;3.75;;;;;;;;;;5009553;28;20730;-74
2022/05/16 04:54:52;;;;;;;9.73;4.15;;;;;;;;;;5005677;28;20060;-74
2022/05/16 04:57:18;;;;;;;9.48;4.53;;;;;;;;;;5007179;28;20145;-74
2022/05/16 04:59:49;;;;;;;7.20;4.05;;;;;;;;;;5005990;28;20071;-73
2022/05/16 05:02:15;;;;;;;9.32;4.82;;;;;;;;;;5000969;28;20033;-74
2022/05/16 05:04:42;;;;;;;9.63;4.85;;;;;;;;;;5012556;28;20021;-74
2022/05/16 05:07:08;;;;;;;10.73;4.25;;;;;;;;;;5014188;28;20625;-74
2022/05/16 05:14:31;;;;;;;10.30;5.70;;;;;;;;;;5009961;28;20033;-74
2022/05/16 05:15:05;;;;;;;12.30;4.40;;;;;;;;;;5006829;28;20041;-74
2022/05/16 05:17:30;;;;;;;10.38;4.72;;;;;;;;;;5007403;28;20046;-74
2022/05/16 05:19:56;;;;;;;7.38;3.35;;;;;;;;;;5008924;28;20033;-74
2022/05/16 05:22:22;;;;;;;13.80;3.92;;;;;;;;;;5004343;28;20037;-74
2022/05/16 05:24:48;;;;;;;18.70;4.53;;;;;;;;;;5008673;28;20101;-74
2022/05/16 05:27:14;;;;;;;8.70;4.03;;;;;;;;;;5005742;28;20081;-74
2022/05/16 05:29:40;;;;;;;7.20;3.50;;;;;;;;;;5010859;28;20104;-74
2022/05/16 05:32:07;;;;;;;10.75;3.80;;;;;;;;;;5003279;28;20466;-74
2022/05/16 05:34:36;;;;;;;13.70;4.72;;;;;;;;;;5000275;28;20045;-74
2022/05/16 05:37:02;;;;;;;12.25;4.40;;;;;;;;;;5011247;28;20550;-74
2022/05/16 05:39:31;;;;;;;9.85;4.18;;;;;;;;;;5000843;28;20079;-74
2022/05/16 05:41:57;;;;;;;8.85;3.38;;;;;;;;;;5005142;28;20034;-74
2022/05/16 05:44:23;;;;;;;11.43;3.60;;;;;;;;;;5010164;28;20533;-74
2022/05/16 05:46:49;;;;;;;8.52;3.40;;;;;;;;;;5008042;28;20037;-74
2022/05/16 05:49:15;;;;;;;9.98;3.30;;;;;;;;;;5013448;28;20038;-74
2022/05/16 05:51:41;;;;;;;7.07;3.38;;;;;;;;;;5015732;28;20088;-74
2022/05/16 05:54:07;;;;;;;10.80;4.63;;;;;;;;;;5000347;28;20059;-73
2022/05/16 05:56:34;;;;;;;10.45;3.97;;;;;;;;;;5010093;28;20029;-74
2022/05/16 05:59:00;;;;;;;10.13;4.20;;;;;;;;;;5008339;28;20647;-74
2022/05/16 06:01:26;;;;;;;13.07;6.30;;;;;;;;;;5006899;28;20037;-73
2022/05/16 06:03:53;;;;;;;14.02;5.80;;;;;;;;;;5005696;28;20908;-74
2022/05/16 06:06:19;;;;;;;11.00;4.40;;;;;;;;;;5006184;28;20033;-74
2022/05/16 06:08:45;;;;;;;12.15;3.97;;;;;;;;;;5008096;28;20044;-74
2022/05/16 06:11:11;;;;;;;11.20;3.88;;;;;;;;;;5008486;28;20037;-73
2022/05/16 06:13:38;;;;;;;9.48;3.83;;;;;;;;;;5007531;28;20062;-74
2022/05/16 06:16:05;;;;;;;8.18;4.05;;;;;;;;;;5006379;28;20128;-74
2022/05/16 06:18:31;;;;;;;8.15;3.70;;;;;;;;;;5005236;28;20058;-74
2022/05/16 06:20:57;;;;;;;5.43;3.00;;;;;;;;;;5003507;28;20113;-74
2022/05/16 06:23:23;;;;;;;12.38;4.13;;;;;;;;;;5004320;28;20388;-74
2022/05/16 06:25:49;;;;;;;13.25;4.40;;;;;;;;;;5003209;28;20050;-74
2022/05/16 06:28:20;;;;;;;7.38;3.30;;;;;;;;;;5006337;28;20079;-74
2022/05/16 06:30:47;;;;;;;12.65;3.97;;;;;;;;;;5011387;28;20030;-74
2022/05/16 06:33:14;;;;;;;5.95;3.72;;;;;;;;;;5005953;28;20038;-74
2022/05/16 06:35:40;;;;;;;11.65;3.55;;;;;;;;;;5003918;28;20156;-74
2022/05/16 06:38:06;;;;;;;7.65;2.53;;;;;;;;;;5002181;28;20034;-74
2022/05/16 06:40:33;;;;;;;9.23;2.75;;;;;;;;;;5006401;28;20069;-74
2022/05/16 06:42:59;;;;;;;10.90;3.00;;;;;;;;;;5002289;28;20053;-74
2022/05/16 06:45:25;;;;;;;10.85;2.53;;;;;;;;;;5007993;28;20033;-74
2022/05/16 06:47:51;;;;;;;9.32;2.60;;;;;;;;;;5007762;28;20033;-74
2022/05/16 06:50:17;;;;;;;8.43;2.63;;;;;;;;;;5002321;28;20572;-74
2022/05/16 06:52:43;;;;;;;9.05;4.40;;;;;;;;;;5005259;28;20038;-74
2022/05/16 06:55:09;;;;;;;14.70;7.00;;;;;;;;;;5001390;28;20496;-74
2022/05/16 06:57:36;;;;;;;12.75;5.55;;;;;;;;;;5008893;28;20739;-74
2022/05/16 07:00:03;;;;;;;8.50;3.50;;;;;;;;;;5003449;28;20851;-74
2022/05/16 07:02:30;;;;;;;17.73;3.67;;;;;;;;;;5004574;28;20026;-74
2022/05/16 07:04:56;;;;;;;9.13;3.13;;;;;;;;;;5007674;28;20029;-74
2022/05/16 07:07:22;;;;;;;9.60;3.67;;;;;;;;;;5007910;28;20530;-74
2022/05/16 07:09:48;;;;;;;9.52;3.72;;;;;;;;;;5011473;28;20518;-74
2022/05/16 07:12:14;;;;;;;12.88;3.40;;;;;;;;;;5014996;28;20041;-74
2022/05/16 07:14:40;;;;;;;11.15;3.38;;;;;;;;;;5013716;28;20869;-74
2022/05/16 07:17:07;;;;;;;10.70;3.53;;;;;;;;;;5010194;28;20037;-74
2022/05/16 07:19:34;;;;;;;12.45;4.63;;;;;;;;;;5007525;28;20030;-74
2022/05/16 07:22:01;;;;;;;13.38;6.35;;;;;;;;;;5007545;28;20037;-73
2022/05/16 07:24:27;;;;;;;12.27;5.43;;;;;;;;;;5007740;28;20031;-74
2022/05/16 07:29:37;;;;;;;10.60;3.38;;;;;;;;;;5006528;28;20112;-74
2022/05/16 07:32:04;;;;;;;10.63;3.47;;;;;;;;;;5008601;28;20491;-74
2022/05/16 07:34:30;;;;;;;11.05;3.45;;;;;;;;;;5007417;28;20582;-74
2022/05/16 07:36:56;;;;;;;11.23;2.95;;;;;;;;;;5005874;28;20044;-74
2022/05/16 07:39:22;;;;;;;12.05;3.20;;;;;;;;;;5006555;28;20048;-74
2022/05/16 07:41:49;;;;;;;17.13;3.85;;;;;;;;;;5006971;28;20068;-74
2022/05/16 07:44:15;;;;;;;14.93;3.55;;;;;;;;;;5007452;28;20041;-74
2022/05/16 07:46:41;;;;;;;12.57;3.00;;;;;;;;;;5009875;28;20029;-73
2022/05/16 07:49:07;;;;;;;18.63;3.50;;;;;;;;;;5008516;28;20087;-74
2022/05/16 07:51:34;;;;;;;12.90;3.90;;;;;;;;;;5009887;28;20030;-74
2022/05/16 07:54:00;;;;;;;14.63;4.55;;;;;;;;;;5005484;28;20476;-74
2022/05/16 07:56:26;;;;;;;14.13;4.38;;;;;;;;;;5010522;28;20057;-74
2022/05/16 07:58:53;;;;;;;10.70;3.63;;;;;;;;;;5005409;28;20034;-74
2022/05/16 08:01:19;;;;;;;11.25;3.85;;;;;;;;;;5006802;28;20030;-73
2022/05/16 08:03:45;;;;;;;9.75;3.80;;;;;;;;;;5006272;28;20038;-74
2022/05/16 08:06:11;;;;;;;11.40;3.63;;;;;;;;;;5005526;28;20084;-74
2022/05/16 08:11:22;;;;;;;14.05;2.50;;;;;;;;;;5008295;28;20096;-73
2022/05/16 08:13:48;;;;;;;14.25;3.30;;;;;;;;;;5008947;28;20578;-74
2022/05/16 08:16:14;;;;;;;14.10;4.25;;;;;;;;;;5006922;28;20468;-74
2022/05/16 08:18:41;;;;;;;15.52;3.22;;;;;;;;;;5005415;28;20038;-74
2022/05/16 08:21:10;;;;;;;5.85;2.67;;;;;;;;;;5010273;28;20084;-73
2022/05/16 08:23:36;;;;;;;8.35;3.00;;;;;;;;;;5007560;28;20030;-73
2022/05/16 08:26:04;;;;;;;10.30;3.35;;;;;;;;;;5013671;28;20054;-74
2022/05/16 08:28:30;;;;;;;14.13;4.35;;;;;;;;;;5005917;28;20087;-73
2022/05/16 08:30:56;;;;;;;12.73;3.80;;;;;;;;;;5007281;28;20121;-73
2022/05/16 08:33:22;;;;;;;9.27;2.60;;;;;;;;;;5004247;28;20049;-74
2022/05/16 08:39:52;;;;;;;10.10;3.50;;;;;;;;;;5008444;28;20033;-74
2022/05/16 08:41:22;;;;;;;7.25;2.63;;;;;;;;;;5009636;28;20056;-73
2022/05/16 08:43:52;;;;;;;9.38;3.17;;;;;;;;;;5008585;28;20415;-73
2022/05/16 08:46:27;;;;;;;15.90;2.70;;;;;;;;;;5032862;23;20053;-74
2022/05/16 08:48:58;;;;;;;7.13;2.50;;;;;;;;;;5017538;28;20819;-73
2022/05/16 08:51:26;;;;;;;9.60;3.00;;;;;;;;;;5021956;28;20120;-73
2022/05/16 08:54:06;;;;;;;6.78;2.60;;;;;;;;;;5022402;28;20574;-74
2022/05/16 08:56:33;;;;;;;10.52;3.20;;;;;;;;;;5018991;28;20040;-74
2022/05/16 08:59:08;;;;;;;9.95;3.00;;;;;;;;;;5021304;28;20132;-73
2022/05/16 09:01:37;;;;;;;9.15;3.50;;;;;;;;;;5021014;28;20026;-73
2022/05/16 09:04:06;;;;;;;7.57;2.70;;;;;;;;;;5019647;28;20033;-73
2022/05/16 09:06:35;;;;;;;11.63;3.47;;;;;;;;;;5020658;28;20029;-74
2022/05/16 09:09:15;;;;;;;8.40;2.78;;;;;;;;;;5019982;28;20032;-73
2022/05/16 09:12:07;;;;;;;6.28;2.75;;;;;;;;;;5018993;28;20532;-74
2022/05/16 09:14:33;;;;;;;;;;;;;;;;;;5018906;28;20057;-73
2022/05/16 09:17:04;;;;;;;7.30;2.65;;;;;;;;;;5024399;28;19921;-73
2022/05/16 09:19:39;;;;;;;8.13;2.70;;;;;;;;;;5023575;28;20842;-74
2022/05/16 09:22:11;;;;;;;10.65;2.70;;;;;;;;;;5019523;28;20045;-73
2022/05/16 09:24:47;;;;;;;8.55;2.92;;;;;;;;;;5023634;28;20143;-73
2022/05/16 09:27:13;;;;;;;10.43;3.30;;;;;;;;;;5017746;28;20060;-74
2022/05/16 09:29:42;;;;;;;7.78;2.08;;;;;;;;;;5019302;28;20136;-74
2022/05/16 09:32:22;;;;;;;5.82;2.53;;;;;;;;;;5021585;28;20041;-73
2022/05/16 09:34:48;;;;;;;9.88;3.03;;;;;;;;;;5023506;28;20029;-74
2022/05/16 09:37:14;;;;;;;14.65;3.67;;;;;;;;;;5022481;28;20033;-74
2022/05/16 09:39:40;;;;;;;14.52;3.53;;;;;;;;;;5020119;28;20021;-74
2022/05/16 09:42:25;;;;;;;12.57;3.65;;;;;;;;;;5018390;28;20042;-74
2022/05/16 09:45:02;;;;;;;9.93;2.97;;;;;;;;;;5024568;28;20041;-74
2022/05/16 09:47:28;;;;;;;6.78;2.63;;;;;;;;;;5016420;28;20085;-74
2022/05/16 09:50:07;;;;;;;11.57;3.00;;;;;;;;;;5022788;28;20427;-73
2022/05/16 09:52:39;;;;;;;10.05;2.67;;;;;;;;;;5017240;28;20041;-74
2022/05/16 09:55:08;;;;;;;7.60;2.80;;;;;;;;;;5019433;28;20042;-74
2022/05/16 09:57:46;;;;;;;10.68;4.00;;;;;;;;;;5021262;28;20052;-74
2022/05/16 10:00:32;;;;;;;10.25;3.08;;;;;;;;;;5019542;28;20543;-74
2022/05/16 10:03:14;;;;;;;7.93;2.72;;;;;;;;;;5017789;28;20029;-74
2022/05/16 10:05:43;;;;;;;8.75;2.83;;;;;;;;;;5018474;28;20044;-74
2022/05/16 10:08:17;;;;;;;11.90;3.20;;;;;;;;;;5021536;28;20037;-74
2022/05/16 10:10:45;;;;;;;9.15;3.22;;;;;;;;;;5024129;28;20040;-73
2022/05/16 10:13:12;;;;;;;7.93;3.00;;;;;;;;;;5019485;28;20117;-74
2022/05/16 10:15:38;;;;;;;10.18;2.72;;;;;;;;;;5021728;28;20041;-74
2022/05/16 10:18:06;;;;;;;9.73;2.72;;;;;;;;;;5021755;28;20042;-74
2022/05/16 10:20:40;;;;;;;7.18;2.63;;;;;;;;;;5024741;28;20033;-74
2022/05/16 10:23:09;;;;;;;8.13;2.42;;;;;;;;;;5020875;28;20813;-74
2022/05/16 10:25:45;;;;;;;8.75;2.80;;;;;;;;;;5019297;28;20059;-73
2022/05/16 10:28:25;;;;;;;7.70;2.42;;;;;;;;;;5011260;28;20053;-74
2022/05/16 10:33:37;;;;;;;13.50;2.90;;;;;;;;;;5019018;28;20111;-73
2022/05/16 10:36:12;;;;;;;8.13;2.83;;;;;;;;;;5019394;28;20443;-74
2022/05/16 10:38:43;;;;;;;10.05;2.85;;;;;;;;;;5017530;28;20033;-74
2022/05/16 10:41:14;;;;;;;7.95;3.40;;;;;;;;;;5031834;28;20856;-74
2022/05/16 10:43:54;;;;;;;8.13;2.85;;;;;;;;;;5025708;28;20029;-74
2022/05/16 10:46:24;;;;;;;9.55;2.30;;;;;;;;;;5023860;28;20493;-73
2022/05/16 10:48:53;;;;;;;8.43;2.75;;;;;;;;;;5024842;28;20033;-74
2022/05/16 10:51:19;;;;;;;10.35;3.03;;;;;;;;;;5024449;28;20038;-74
2022/05/16 10:53:58;;;;;;;8.07;3.17;;;;;;;;;;5022662;28;20041;-74
2022/05/16 10:56:31;;;;;;;11.80;3.00;;;;;;;;;;5020803;28;20395;-74
2022/05/16 10:59:03;;;;;;;10.77;2.83;;;;;;;;;;5022136;28;20025;-74
2022/05/16 11:01:35;;;;;;;8.13;3.20;;;;;;;;;;5024201;28;20095;-74
2022/05/16 11:04:13;;;;;;;9.30;3.28;;;;;;;;;;5040006;28;20490;-74
2022/05/16 11:06:40;;;;;;;8.85;2.80;;;;;;;;;;5023997;28;20026;-74
2022/05/16 11:09:12;;;;;;;14.23;2.92;;;;;;;;;;5022591;28;20026;-74
2022/05/16 11:11:48;;;;;;;7.53;2.60;;;;;;;;;;5024078;28;20033;-74
2022/05/16 11:14:29;;;;;;;11.45;2.83;;;;;;;;;;5022906;28;20030;-74
2022/05/16 11:16:59;;;;;;;13.80;3.28;;;;;;;;;;5022529;28;20438;-74
2022/05/16 11:19:44;;;;;;;10.45;2.28;;;;;;;;;;5023033;28;20573;-74
2022/05/16 11:22:29;;;;;;;8.88;2.47;;;;;;;;;;5018762;28;20514;-74
2022/05/16 11:25:07;;;;;;;7.63;2.50;;;;;;;;;;5021233;28;20037;-74
2022/05/16 11:27:39;;;;;;;8.57;2.45;;;;;;;;;;5020818;28;20033;-74
2022/05/16 11:30:06;;;;;;;9.63;2.40;;;;;;;;;;5023160;28;20065;-74
2022/05/16 11:32:56;;;;;;;17.23;3.10;;;;;;;;;;5023688;28;20033;-73
2022/05/16 11:35:28;;;;;;;5.15;2.50;;;;;;;;;;5005701;28;20786;-74
2022/05/16 11:38:03;;;;;;;9.40;2.95;;;;;;;;;;5023989;28;20180;-74
2022/05/16 11:40:29;;;;;;;10.45;2.60;;;;;;;;;;5020323;28;20065;-74
2022/05/16 11:43:15;;;;;;;8.57;2.72;;;;;;;;;;5017894;28;20030;-73
2022/05/16 11:45:59;;;;;;;10.90;2.75;;;;;;;;;;5021440;28;20088;-74
2022/05/16 11:48:25;;;;;;;11.98;3.40;;;;;;;;;;5018215;28;20120;-73
2022/05/16 11:51:07;;;;;;;9.43;2.85;;;;;;;;;;5017887;28;20109;-74
2022/05/16 11:53:50;;;;;;;7.40;2.80;;;;;;;;;;5016003;28;20059;-73
2022/05/16 12:02:19;;;;;;;8.80;2.83;;;;;;;;;;5022560;28;20156;-73
2022/05/16 12:04:48;;;;;;;8.35;2.58;;;;;;;;;;5022338;28;20734;-73
2022/05/16 12:07:19;;;;;;;11.82;3.00;;;;;;;;;;5020988;28;20045;-73
2022/05/16 12:09:56;;;;;;;6.20;2.75;;;;;;;;;;5019920;28;20037;-74
2022/05/16 12:12:28;;;;;;;10.45;2.50;;;;;;;;;;5025359;28;20990;-74
2022/05/16 12:15:10;;;;;;;7.15;2.58;;;;;;;;;;5022224;28;20044;-74
2022/05/16 12:17:37;;;;;;;6.13;2.72;;;;;;;;;;5024180;28;20037;-74
2022/05/16 12:20:09;;;;;;;7.72;2.50;;;;;;;;;;5019901;28;20038;-74
2022/05/16 12:22:35;;;;;;;9.68;2.50;;;;;;;;;;5026072;28;20040;-74
2022/05/16 12:25:04;;;;;;;6.20;2.80;;;;;;;;;;5021017;28;20021;-73
2022/05/16 12:27:46;;;;;;;10.05;3.03;;;;;;;;;;5025218;28;20037;-74
2022/05/16 12:30:36;;;;;;;6.00;2.83;;;;;;;;;;5021390;28;20046;-73
2022/05/16 12:33:02;;;;;;;9.90;2.17;;;;;;;;;;5017738;28;20038;-74
2022/05/16 12:35:28;;;;;;;12.10;2.97;;;;;;;;;;5021224;28;20037;-74
2022/05/16 12:37:57;;;;;;;7.32;2.50;;;;;;;;;;5025289;28;20084;-74
2022/05/16 12:40:42;;;;;;;6.65;2.53;;;;;;;;;;5024157;28;20033;-74
2022/05/16 12:43:26;;;;;;;6.32;2.22;;;;;;;;;;5024428;28;20137;-74
2022/05/16 12:45:55;;;;;;;12.43;3.20;;;;;;;;;;5023047;28;20056;-74
2022/05/16 12:48:40;;;;;;;8.18;2.97;;;;;;;;;;5020561;28;20676;-74
2022/05/16 12:51:24;;;;;;;10.20;2.92;;;;;;;;;;5039953;28;20060;-74
2022/05/16 12:53:57;;;;;;;10.50;2.92;;;;;;;;;;5025013;28;20054;-74
2022/05/16 12:56:30;;;;;;;7.68;2.47;;;;;;;;;;5022218;28;20037;-74
2022/05/16 12:58:56;;;;;;;7.88;2.72;;;;;;;;;;5022524;28;20037;-74
2022/05/16 13:01:31;;;;;;;9.18;3.17;;;;;;;;;;5022872;28;20028;-74
2022/05/16 13:04:16;;;;;;;6.35;2.33;;;;;;;;;;5024718;28;20025;-73
2022/05/16 13:06:54;;;;;;;8.98;2.45;;;;;;;;;;5020631;28;20835;-73
2022/05/16 13:09:23;;;;;;;10.50;2.80;;;;;;;;;;5037133;28;20419;-74
2022/05/16 13:12:15;;;;;;;7.43;2.33;;;;;;;;;;5021753;28;20041;-74
2022/05/16 13:14:51;;;;;;;8.07;2.50;;;;;;;;;;5022907;28;20148;-74
2022/05/16 13:17:37;;;;;;;8.27;2.20;;;;;;;;;;5020828;28;20030;-74
2022/05/16 13:20:08;;;;;;;6.78;2.20;;;;;;;;;;5019057;28;20041;-74
2022/05/16 13:22:34;;;;;;;7.57;2.40;;;;;;;;;;5042742;28;20052;-74
2022/05/16 13:25:01;;;;;;;9.68;2.22;;;;;;;;;;5024166;28;20025;-74
2022/05/16 13:30:15;;;;;;;5.28;2.28;;;;;;;;;;5022780;28;20068;-74
2022/05/16 13:32:41;;;;;;;7.00;2.75;;;;;;;;;;5020480;28;20479;-74
2022/05/16 13:35:09;;;;;;;8.10;2.67;;;;;;;;;;5025639;28;20041;-74
2022/05/16 13:37:42;;;;;;;9.10;2.97;;;;;;;;;;5023647;28;20246;-74
2022/05/16 13:40:09;;;;;;;8.35;2.88;;;;;;;;;;5020314;28;20374;-74
2022/05/16 13:42:37;;;;;;;11.32;2.88;;;;;;;;;;5020334;28;20076;-74
2022/05/16 13:45:04;;;;;;;8.23;2.67;;;;;;;;;;5022540;28;20033;-74
2022/05/16 13:47:31;;;;;;;13.68;3.03;;;;;;;;;;5033999;28;20077;-74
2022/05/16 13:49:57;;;;;;;11.68;3.70;;;;;;;;;;5023832;28;20037;-74
2022/05/16 13:52:24;;;;;;;7.22;3.08;;;;;;;;;;5022658;28;20070;-74
2022/05/16 13:54:50;;;;;;;7.05;2.85;;;;;;;;;;5022402;28;20037;-74
2022/05/16 13:57:22;;;;;;;11.05;2.80;;;;;;;;;;5022631;28;20051;-73
2022/05/16 13:59:48;;;;;;;8.23;2.17;;;;;;;;;;5022805;28;20124;-74
2022/05/16 14:02:23;;;;;;;6.65;2.28;;;;;;;;;;5037801;28;20344;-74
2022/05/16 14:04:50;;;;;;;12.43;2.95;;;;;;;;;;5024531;28;20037;-74
2022/05/16 14:07:18;;;;;;;8.55;2.28;;;;;;;;;;5024229;28;20029;-74
2022/05/16 14:10:02;;;;;;;7.60;2.42;;;;;;;;;;5037037;28;20069;-74
2022/05/16 14:12:32;;;;;;;11.60;3.15;;;;;;;;;;5023170;28;20100;-74
2022/05/16 14:14:59;;;;;;;9.18;2.40;;;;;;;;;;5038673;28;20052;-74
2022/05/16 14:17:36;;;;;;;10.07;2.22;;;;;;;;;;5024640;28;20033;-74
2022/05/16 14:20:06;;;;;;;8.70;2.83;;;;;;;;;;5024742;28;20048;-74
2022/05/16 14:22:34;;;;;;;6.28;2.30;;;;;;;;;;5026155;28;20067;-73
2022/05/16 14:25:02;;;;;;;8.38;2.88;;;;;;;;;;5025309;28;20040;-73
2022/05/16 14:27:37;;;;;;;7.55;2.10;;;;;;;;;;5028224;28;20021;-73
2022/05/16 14:30:16;;;;;;;12.77;2.83;;;;;;;;;;5022656;28;20033;-74
2022/05/16 14:32:44;;;;;;;9.40;2.50;;;;;;;;;;5024755;28;20040;-73
2022/05/16 14:35:14;;;;;;;9.20;2.45;;;;;;;;;;5023457;28;20672;-73
2022/05/16 14:37:40;;;;;;;7.60;2.70;;;;;;;;;;5026617;28;20036;-73
2022/05/16 14:40:11;;;;;;;9.65;2.88;;;;;;;;;;5025433;28;20041;-73
2022/05/16 14:42:41;;;;;;;10.13;2.70;;;;;;;;;;5025765;28;20033;-73
2022/05/16 14:45:08;;;;;;;10.07;2.13;;;;;;;;;;5023238;28;20049;-73
2022/05/16 14:47:41;;;;;;;9.05;2.45;;;;;;;;;;5024632;28;20560;-73
2022/05/16 14:50:07;;;;;;;9.88;2.47;;;;;;;;;;5025147;28;20087;-73
2022/05/16 14:52:35;;;;;;;10.98;2.65;;;;;;;;;;5026792;28;20120;-73
2022/05/16 14:55:04;;;;;;;9.02;2.58;;;;;;;;;;5026521;28;20040;-73
2022/05/16 14:57:30;;;;;;;7.35;2.20;;;;;;;;;;5024546;28;20029;-73
2022/05/16 14:59:56;;;;;;;6.20;2.05;;;;;;;;;;5023983;28;20440;-74
2022/05/16 15:05:07;;;;;;;9.38;2.00;;;;;;;;;;5025430;28;20043;-73
2022/05/16 15:07:36;;;;;;;12.00;2.65;;;;;;;;;;5024606;28;20073;-73
2022/05/16 15:10:03;;;;;;;8.75;2.50;;;;;;;;;;5022323;28;20475;-73
2022/05/16 15:12:30;;;;;;;11.30;2.15;;;;;;;;;;5022985;28;20033;-73
2022/05/16 15:14:56;;;;;;;12.27;2.25;;;;;;;;;;5024138;28;20514;-73
2022/05/16 15:17:22;;;;;;;8.68;2.58;;;;;;;;;;5024982;28;20033;-73
2022/05/16 15:19:48;;;;;;;12.02;2.50;;;;;;;;;;5019159;28;20084;-73
2022/05/16 15:22:17;;;;;;;8.73;2.72;;;;;;;;;;5025525;28;20044;-74
2022/05/16 15:25:01;;;;;;;8.85;2.33;;;;;;;;;;5036221;28;20714;-73